Time;durP1;ratioP1;P1;durP2;ratioP2;P2;SDS_P1;SDS_P2;PMS_P1;PMS_P2;Temp;Humidity;BMP_temperature;BMP_pressure;BME280_temperature;BME280_humidity;BME280_pressure;Samples;Min_cycle;Max_cycle;Signal;HPM_P1;HPM_P2
2023/12/07 20:55:28;;;;;;;;;;;;;;;2.73;61.57;99651.31;1052000;54;52175;-83
2023/12/07 20:56:29;;;;;;;;;;;;;;;2.67;61.56;99646.41;1088907;54;1074;-81
2023/12/07 20:57:42;;;;;;;;;;;;;;;2.63;61.39;99641.38;1088715;54;1003;-82
2023/12/07 20:58:44;;;;;;;;;;;;;;;2.61;61.47;99637.97;1088616;47;1358;-81
2023/12/07 20:59:45;;;;;;;;;;;;;;;2.58;61.69;99632.91;1088541;47;959;-81
2023/12/07 21:00:48;;;;;;;;;;;;;;;2.65;61.61;99622.78;1088591;47;970;-82
2023/12/07 21:01:49;;;;;;;;;;;;;;;2.57;61.84;99625.94;1088503;54;953;-82
2023/12/07 21:02:55;;;;;;;;;;;;;;;2.55;61.94;99622.53;1088396;54;972;-82
2023/12/07 21:03:55;;;;;;;;;;;;;;;2.53;61.95;99615.69;1088276;54;981;-82
2023/12/07 21:04:59;;;;;;;;;;;;;;;2.55;61.91;99617.25;1088345;46;1303;-81
2023/12/07 21:05:59;;;;;;;;;;;;;;;2.56;61.64;99613.69;1088386;47;955;-83
2023/12/07 21:07:03;;;;;;;;;;;;;;;2.57;61.95;99610.09;1088412;47;895;-81
2023/12/07 21:08:05;;;;;;;;;;;;;;;2.53;61.67;99606.00;1088551;54;1076;-81
2023/12/07 21:09:09;;;;;;;;;;;;;;;2.52;61.96;99617.50;1088459;54;1855;-80
2023/12/07 21:10:10;;;;;;;;;;;;;;;2.58;61.96;99613.59;1088482;47;955;-82
2023/12/07 21:14:44;;;;;;;;;;;;;;;2.54;61.71;99620.88;1088331;54;1249;-80
2023/12/07 21:15:48;;;;;;;;;;;;;;;2.59;61.37;99623.22;1089146;46;1288;-80
2023/12/07 21:16:51;;;;;;;;;;;;;;;2.56;61.65;99626.88;1088646;47;962;-81
2023/12/07 21:18:04;;;;;;;;;;;;;;;2.52;61.46;99629.81;1088716;54;1075;-80
2023/12/07 21:19:08;;;;;;;;;;;;;;;2.52;61.35;99625.41;1088655;47;908;-78
2023/12/07 21:20:18;;;;;;;;;;;;;;;2.49;61.70;99620.31;1088679;47;869;-81
2023/12/07 21:21:21;;;;;;;;;;;;;;;2.45;61.68;99622.34;1088673;54;1008;-80
2023/12/07 21:22:22;;;;;;;;;;;;;;;2.47;61.64;99614.31;1088787;46;1069;-80
2023/12/07 21:23:26;;;;;;;;;;;;;;;2.42;61.77;99611.97;1088326;46;1135;-77
2023/12/07 21:24:26;;;;;;;;;;;;;;;2.44;61.64;99615.34;1088007;54;907;-79
2023/12/07 21:25:30;;;;;;;;;;;;;;;2.53;61.47;99616.53;1087907;47;1259;-79
2023/12/07 21:26:30;;;;;;;;;;;;;;;2.56;61.42;99610.22;1088198;54;961;-80
2023/12/07 21:27:34;;;;;;;;;;;;;;;2.63;61.45;99614.97;1088207;47;1123;-78
2023/12/07 21:28:34;;;;;;;;;;;;;;;2.75;61.05;99609.78;1088124;54;1061;-77
2023/12/07 21:29:38;;;;;;;;;;;;;;;2.73;60.97;99604.63;1088023;47;1846;-77
2023/12/07 21:30:40;;;;;;;;;;;;;;;2.76;61.24;99611.47;1087990;54;1001;-78
2023/12/07 21:31:46;;;;;;;;;;;;;;;2.73;61.15;99598.50;1088100;54;985;-77
2023/12/07 21:32:47;;;;;;;;;;;;;;;2.74;61.26;99610.75;1088006;47;966;-76
2023/12/07 21:33:51;;;;;;;;;;;;;;;2.73;61.24;99598.50;1087945;47;975;-78
2023/12/07 21:34:51;;;;;;;;;;;;;;;2.80;61.15;99599.75;1087891;47;996;-78
2023/12/07 21:35:55;;;;;;;;;;;;;;;2.91;61.10;99605.16;1087975;46;1189;-78
2023/12/07 21:36:55;;;;;;;;;;;;;;;2.97;60.73;99601.25;1088047;47;1012;-77
2023/12/07 21:37:59;;;;;;;;;;;;;;;3.03;60.69;99605.22;1088031;54;982;-78
2023/12/07 21:39:00;;;;;;;;;;;;;;;3.07;60.81;99604.91;1087992;47;1073;-78
2023/12/07 21:40:03;;;;;;;;;;;;;;;3.12;60.35;99600.16;1087985;47;873;-78
2023/12/07 21:41:05;;;;;;;;;;;;;;;3.15;60.54;99600.91;1088180;46;893;-78
2023/12/07 21:42:09;;;;;;;;;;;;;;;3.21;60.43;99609.22;1088006;54;952;-78
2023/12/07 21:43:10;;;;;;;;;;;;;;;3.26;60.12;99608.88;1088424;46;984;-77
2023/12/07 21:44:13;;;;;;;;;;;;;;;3.32;59.96;99604.97;1088281;54;961;-78
2023/12/07 21:45:14;;;;;;;;;;;;;;;3.28;60.24;99604.34;1088102;47;1318;-77
2023/12/07 21:46:17;;;;;;;;;;;;;;;3.26;60.13;99608.88;1088094;47;1015;-78
2023/12/07 21:47:20;;;;;;;;;;;;;;;3.18;60.34;99604.16;1087956;54;922;-77
2023/12/07 21:48:24;;;;;;;;;;;;;;;3.20;60.25;99604.06;1087977;54;1088;-78
2023/12/07 21:49:24;;;;;;;;;;;;;;;3.11;60.06;99602.91;1087985;54;1850;-76
2023/12/07 21:50:25;;;;;;;;;;;;;;;3.14;60.16;99604.50;1087699;47;955;-77
2023/12/07 21:51:28;;;;;;;;;;;;;;;3.16;60.05;99595.50;1087716;54;989;-78
2023/12/07 21:52:30;;;;;;;;;;;;;;;3.09;60.23;99591.63;1088108;46;955;-78
2023/12/07 21:53:33;;;;;;;;;;;;;;;3.07;60.31;99588.22;1087963;54;935;-78
2023/12/07 21:54:34;;;;;;;;;;;;;;;2.92;60.49;99580.44;1088017;46;935;-78
2023/12/07 21:55:37;;;;;;;;;;;;;;;2.85;60.68;99571.22;1087879;47;1393;-78
2023/12/07 21:56:38;;;;;;;;;;;;;;;2.74;60.71;99579.91;1087910;54;1135;-77
2023/12/07 21:57:41;;;;;;;;;;;;;;;2.66;61.12;99579.59;1087953;54;1114;-77
2023/12/07 21:58:42;;;;;;;;;;;;;;;2.65;61.00;99570.81;1087817;54;1067;-77
2023/12/07 21:59:45;;;;;;;;;;;;;;;2.64;60.92;99574.44;1087989;54;1186;-77
2023/12/07 22:00:46;;;;;;;;;;;;;;;2.68;61.10;99576.84;1088054;46;1052;-79
2023/12/07 22:01:50;;;;;;;;;;;;;;;2.73;61.03;99577.38;1087583;54;1027;-77
2023/12/07 22:02:54;;;;;;;;;;;;;;;2.76;60.97;99577.16;1087696;54;898;-78
2023/12/07 22:03:58;;;;;;;;;;;;;;;2.76;60.87;99571.88;1087521;46;1146;-77
2023/12/07 22:04:58;;;;;;;;;;;;;;;2.71;60.71;99571.38;1087841;54;1382;-77
2023/12/07 22:06:02;;;;;;;;;;;;;;;2.71;60.95;99568.72;1088037;54;1081;-77
2023/12/07 22:07:03;;;;;;;;;;;;;;;2.62;61.09;99563.13;1088091;54;1099;-77
2023/12/07 22:08:06;;;;;;;;;;;;;;;2.64;61.13;99558.59;1088093;54;913;-78
2023/12/07 22:09:08;;;;;;;;;;;;;;;2.66;61.22;99558.47;1087905;54;1860;-77
2023/12/07 22:10:12;;;;;;;;;;;;;;;2.54;61.41;99546.13;1087994;54;1269;-78
2023/12/07 22:11:13;;;;;;;;;;;;;;;2.50;61.65;99550.78;1087772;54;956;-77
2023/12/07 22:12:16;;;;;;;;;;;;;;;2.55;61.54;99545.19;1087950;54;1166;-77
2023/12/07 22:13:18;;;;;;;;;;;;;;;2.62;61.44;99538.53;1087953;47;1055;-76
2023/12/07 22:14:22;;;;;;;;;;;;;;;2.67;61.48;99535.56;1088128;47;1163;-78
2023/12/07 22:15:23;;;;;;;;;;;;;;;2.76;60.99;99535.78;1087384;54;1298;-77
2023/12/07 22:16:24;;;;;;;;;;;;;;;2.85;60.83;99530.81;1088053;47;1325;-78
2023/12/07 22:17:27;;;;;;;;;;;;;;;2.91;60.73;99528.59;1087981;47;1008;-78
2023/12/07 22:18:30;;;;;;;;;;;;;;;2.99;60.64;99521.91;1087984;54;1071;-77
2023/12/07 22:19:33;;;;;;;;;;;;;;;3.01;60.66;99533.22;1088008;54;924;-78
2023/12/07 22:20:34;;;;;;;;;;;;;;;3.06;60.59;99529.28;1088015;54;1099;-78
2023/12/07 22:21:37;;;;;;;;;;;;;;;3.06;60.65;99531.06;1088171;54;1025;-77
2023/12/07 22:22:38;;;;;;;;;;;;;;;3.01;60.82;99533.22;1088186;46;840;-79
2023/12/07 22:23:43;;;;;;;;;;;;;;;3.03;60.74;99532.13;1088129;54;1020;-79
2023/12/07 22:24:44;;;;;;;;;;;;;;;2.89;60.99;99533.13;1088173;54;922;-76
2023/12/07 22:25:47;;;;;;;;;;;;;;;2.95;60.80;99532.66;1088055;46;1255;-79
2023/12/07 22:26:47;;;;;;;;;;;;;;;2.97;60.73;99532.59;1088276;46;1008;-77
2023/12/07 22:27:51;;;;;;;;;;;;;;;2.94;60.81;99538.91;1088081;54;970;-77
2023/12/07 22:28:51;;;;;;;;;;;;;;;2.95;60.77;99535.31;1087876;47;1127;-77
2023/12/07 22:29:55;;;;;;;;;;;;;;;3.00;60.55;99521.78;1087985;54;1845;-78
2023/12/07 22:30:56;;;;;;;;;;;;;;;2.99;60.77;99530.66;1088291;46;992;-78
2023/12/07 22:31:59;;;;;;;;;;;;;;;2.97;60.86;99528.13;1087863;54;1009;-78
2023/12/07 22:33:00;;;;;;;;;;;;;;;2.96;60.70;99523.81;1087990;54;998;-79
2023/12/07 22:34:07;;;;;;;;;;;;;;;2.89;60.88;99519.91;1088030;47;891;-79
2023/12/07 22:35:07;;;;;;;;;;;;;;;2.87;60.94;99511.25;1088028;54;1462;-77
2023/12/07 22:36:15;;;;;;;;;;;;;;;2.91;60.82;99522.44;1087868;54;1151;-77
2023/12/07 22:37:16;;;;;;;;;;;;;;;2.95;60.70;99513.34;1088005;46;933;-77
2023/12/07 22:38:19;;;;;;;;;;;;;;;3.00;60.51;99519.16;1087633;54;1544;-77
2023/12/07 22:39:20;;;;;;;;;;;;;;;2.98;60.51;99513.13;1087886;47;1032;-78
2023/12/07 22:40:23;;;;;;;;;;;;;;;2.98;60.53;99515.75;1087589;47;898;-78
2023/12/07 22:41:24;;;;;;;;;;;;;;;2.90;60.80;99505.75;1087367;47;984;-77
2023/12/07 22:42:28;;;;;;;;;;;;;;;2.85;60.89;99505.22;1087897;54;1036;-78
2023/12/07 22:43:29;;;;;;;;;;;;;;;2.85;60.94;99505.22;1087715;54;1105;-79
2023/12/07 22:44:32;;;;;;;;;;;;;;;2.87;60.99;99503.34;1086918;47;1036;-76
2023/12/07 22:45:33;;;;;;;;;;;;;;;2.93;60.61;99505.53;1087186;54;1324;-78
2023/12/07 22:46:36;;;;;;;;;;;;;;;3.02;60.49;99503.22;1086915;54;1109;-77
2023/12/07 22:47:37;;;;;;;;;;;;;;;3.06;60.54;99504.66;1087916;54;1067;-76
2023/12/07 22:48:38;;;;;;;;;;;;;;;3.03;60.33;99504.88;1087319;47;1000;-77
2023/12/07 22:49:43;;;;;;;;;;;;;;;3.01;60.53;99504.16;1087204;54;1860;-78
2023/12/07 22:50:44;;;;;;;;;;;;;;;2.92;60.31;99498.59;1087340;47;1377;-77
2023/12/07 22:51:48;;;;;;;;;;;;;;;2.89;60.64;99500.56;1086878;47;1171;-77
2023/12/07 22:52:50;;;;;;;;;;;;;;;2.87;60.51;99505.97;1086559;54;1429;-77
2023/12/07 22:53:53;;;;;;;;;;;;;;;2.95;60.20;99508.91;1086096;54;1181;-77
2023/12/07 22:54:54;;;;;;;;;;;;;;;2.94;60.41;99509.84;1086865;47;1028;-77
2023/12/07 22:55:57;;;;;;;;;;;;;;;3.06;59.98;99515.22;1087313;54;1466;-76
2023/12/07 22:56:57;;;;;;;;;;;;;;;3.10;60.02;99517.53;1087418;54;1074;-78
2023/12/07 22:58:02;;;;;;;;;;;;;;;3.16;60.12;99516.25;1087137;47;1584;-76
2023/12/07 22:59:02;;;;;;;;;;;;;;;3.16;59.97;99513.63;1086617;54;1093;-76
2023/12/07 23:00:08;;;;;;;;;;;;;;;3.14;59.92;99518.16;1086701;54;1171;-77
2023/12/07 23:01:09;;;;;;;;;;;;;;;3.05;59.89;99509.13;1087038;47;1065;-77
2023/12/07 23:02:13;;;;;;;;;;;;;;;3.03;60.12;99504.88;1086800;47;1597;-78
2023/12/07 23:03:14;;;;;;;;;;;;;;;2.92;60.25;99509.16;1086199;47;1066;-77
2023/12/07 23:04:15;;;;;;;;;;;;;;;2.93;60.14;99497.59;1086152;49;1072;-79
2023/12/07 23:05:20;;;;;;;;;;;;;;;2.86;60.31;99504.28;1086291;54;1390;-77
2023/12/07 23:06:21;;;;;;;;;;;;;;;2.88;60.18;99506.84;1086408;54;1180;-77
2023/12/07 23:07:24;;;;;;;;;;;;;;;2.90;60.19;99511.03;1086297;54;1165;-77
2023/12/07 23:08:25;;;;;;;;;;;;;;;3.06;59.96;99502.03;1086290;47;1142;-76
2023/12/07 23:09:28;;;;;;;;;;;;;;;3.09;59.66;99507.09;1086278;54;2304;-77
2023/12/07 23:10:29;;;;;;;;;;;;;;;3.01;60.10;99490.94;1086185;47;1138;-77
2023/12/07 23:11:32;;;;;;;;;;;;;;;2.91;59.95;99485.47;1086357;54;1047;-76
2023/12/07 23:12:33;;;;;;;;;;;;;;;2.74;60.47;99476.13;1087027;47;1215;-76
2023/12/07 23:13:35;;;;;;;;;;;;;;;2.65;60.71;99470.53;1087159;47;1155;-77
2023/12/07 23:14:38;;;;;;;;;;;;;;;2.77;60.83;99468.84;1086964;54;1087;-76
2023/12/07 23:15:39;;;;;;;;;;;;;;;2.94;60.24;99472.06;1086857;47;1365;-77
2023/12/07 23:16:43;;;;;;;;;;;;;;;3.00;59.97;99468.97;1086968;51;1029;-78
2023/12/07 23:17:44;;;;;;;;;;;;;;;3.09;60.07;99457.75;1087021;47;1062;-77
2023/12/07 23:18:47;;;;;;;;;;;;;;;3.07;59.78;99456.16;1087072;47;1149;-77
2023/12/07 23:19:48;;;;;;;;;;;;;;;3.04;60.01;99454.59;1086850;47;1031;-78
2023/12/07 23:20:53;;;;;;;;;;;;;;;2.93;60.09;99452.72;1086907;54;1468;-77
2023/12/07 23:21:55;;;;;;;;;;;;;;;2.89;60.32;99456.53;1087070;54;1067;-77
2023/12/07 23:22:58;;;;;;;;;;;;;;;2.90;60.43;99450.31;1087124;47;1151;-77
2023/12/07 23:23:59;;;;;;;;;;;;;;;2.95;60.36;99445.53;1086909;47;1183;-78
2023/12/07 23:25:02;;;;;;;;;;;;;;;3.02;60.06;99453.03;1087092;47;1413;-79
2023/12/07 23:26:06;;;;;;;;;;;;;;;2.94;60.17;99443.84;1086918;54;1119;-78
2023/12/07 23:27:09;;;;;;;;;;;;;;;3.02;60.34;99450.41;1086822;47;1004;-77
2023/12/07 23:28:10;;;;;;;;;;;;;;;3.05;60.16;99455.44;1086883;54;1483;-77
2023/12/07 23:29:13;;;;;;;;;;;;;;;3.01;60.42;99449.53;1086796;47;1012;-77
2023/12/07 23:30:14;;;;;;;;;;;;;;;2.91;60.45;99452.00;1086920;54;1945;-77
2023/12/07 23:31:15;;;;;;;;;;;;;;;2.90;60.41;99454.72;1086930;54;1075;-77
2023/12/07 23:32:18;;;;;;;;;;;;;;;2.90;60.70;99450.31;1086907;54;1095;-77
2023/12/07 23:33:20;;;;;;;;;;;;;;;2.91;60.68;99441.44;1086964;54;1174;-77
2023/12/07 23:34:23;;;;;;;;;;;;;;;2.87;60.65;99441.78;1087053;47;1031;-77
2023/12/07 23:35:24;;;;;;;;;;;;;;;2.84;60.56;99444.63;1086786;47;1249;-77
2023/12/07 23:36:31;;;;;;;;;;;;;;;2.85;60.74;99443.69;1086898;54;1020;-77
2023/12/07 23:37:31;;;;;;;;;;;;;;;2.79;60.84;99440.50;1087073;47;1036;-77
2023/12/07 23:38:35;;;;;;;;;;;;;;;2.81;60.91;99435.97;1087077;54;1002;-77
2023/12/07 23:39:36;;;;;;;;;;;;;;;2.75;60.77;99440.84;1087036;54;1020;-77
2023/12/07 23:40:39;;;;;;;;;;;;;;;2.89;60.78;99424.84;1087181;47;1531;-77
2023/12/07 23:41:41;;;;;;;;;;;;;;;2.81;60.54;99432.50;1087463;47;1226;-77
2023/12/07 23:42:45;;;;;;;;;;;;;;;2.84;60.57;99429.63;1087852;54;1105;-78
2023/12/07 23:43:46;;;;;;;;;;;;;;;2.92;60.25;99418.50;1087806;47;1019;-77
2023/12/07 23:44:49;;;;;;;;;;;;;;;2.93;60.46;99421.03;1087703;47;1083;-78
2023/12/07 23:45:50;;;;;;;;;;;;;;;2.97;60.02;99422.50;1087722;47;1388;-79
2023/12/07 23:46:53;;;;;;;;;;;;;;;3.04;60.27;99425.56;1087747;54;959;-77
2023/12/07 23:47:54;;;;;;;;;;;;;;;2.96;60.16;99426.09;1087725;54;999;-77
2023/12/07 23:48:57;;;;;;;;;;;;;;;2.95;60.35;99428.84;1087865;54;1024;-78
2023/12/07 23:49:58;;;;;;;;;;;;;;;2.94;60.10;99428.00;1087702;47;1856;-78
2023/12/07 23:51:01;;;;;;;;;;;;;;;2.94;60.10;99425.34;1087979;54;1001;-78
2023/12/07 23:52:05;;;;;;;;;;;;;;;3.01;60.16;99417.84;1087922;47;966;-78
2023/12/07 23:53:09;;;;;;;;;;;;;;;3.04;60.04;99414.13;1087740;47;974;-77
2023/12/07 23:54:10;;;;;;;;;;;;;;;3.08;60.11;99411.16;1088114;47;943;-78
2023/12/07 23:55:13;;;;;;;;;;;;;;;2.97;60.10;99411.94;1087809;47;1409;-78
2023/12/07 23:56:17;;;;;;;;;;;;;;;2.96;60.17;99404.97;1087857;54;988;-77
2023/12/07 23:57:18;;;;;;;;;;;;;;;3.04;60.11;99400.91;1087959;54;991;-79
2023/12/07 23:58:22;;;;;;;;;;;;;;;2.96;60.36;99402.34;1087898;54;1075;-78
2023/12/07 23:59:23;;;;;;;;;;;;;;;2.99;60.21;99400.44;1087804;47;1345;-78
